KDMO/DMO METAR and TAF weather

Enter ICAO airport designator
Station Type Date Time Source
KDMO METAR 2021/09/25 13:00 UTC NOAA

KDMO 251300Z AUTO 24004KT 9SM FEW002 12/12 A3016 RMK AO2 T01220117


Station Type Date Time Source
KDMO Decoded METAR 2021/09/25 13:00 UTC NOAA

SEDALIA MEMORIAL AIRPORT, MO, United States (KDMO) 38-43N 93-10W 274M
Sep 25, 2021 - 09:00 AM EDT / 2021.09.25 1300 UTC
Wind: from the WSW (240 degrees) at 5 MPH (4 KT):0
Visibility: 9 mile(s):0
Sky conditions: mostly clear
Temperature: 54.0 F (12.2 C)
Dew Point: 53.1 F (11.7 C)
Relative Humidity: 96%
Pressure (altimeter): 30.16 in. Hg (1021 hPa)
ob: KDMO 251300Z AUTO 24004KT 9SM FEW002 12/12 A3016 RMK AO2 T01220117
cycle: 13

Station Type Date Time Source
KDMO TAF UTC NOAA

Error!

Example: see airport list